sensor_id;sensor_type;location;lat;lon;timestamp;P1;durP1;ratioP1;P2;durP2;ratioP2
12359;SDS011;6244;51.460;7.090;2022-12-11T00:02:53;816.90;;;341.10;;
12359;SDS011;6244;51.460;7.090;2022-12-11T00:07:50;826.20;;;346.40;;
12359;SDS011;6244;51.460;7.090;2022-12-11T00:12:49;828.35;;;355.00;;
12359;SDS011;6244;51.460;7.090;2022-12-11T00:17:46;834.23;;;349.43;;
12359;SDS011;6244;51.460;7.090;2022-12-11T00:22:42;841.58;;;349.98;;
12359;SDS011;6244;51.460;7.090;2022-12-11T00:27:38;838.80;;;352.55;;
12359;SDS011;6244;51.460;7.090;2022-12-11T00:32:36;834.65;;;355.85;;
12359;SDS011;6244;51.460;7.090;2022-12-11T00:37:35;831.63;;;351.80;;
12359;SDS011;6244;51.460;7.090;2022-12-11T00:42:31;844.77;;;347.63;;
12359;SDS011;6244;51.460;7.090;2022-12-11T00:47:27;848.88;;;346.55;;
12359;SDS011;6244;51.460;7.090;2022-12-11T00:52:25;847.10;;;350.50;;
12359;SDS011;6244;51.460;7.090;2022-12-11T00:57:22;847.75;;;343.98;;
12359;SDS011;6244;51.460;7.090;2022-12-11T01:02:18;841.63;;;334.77;;
12359;SDS011;6244;51.460;7.090;2022-12-11T01:07:15;841.05;;;344.00;;
12359;SDS011;6244;51.460;7.090;2022-12-11T01:12:13;844.75;;;344.23;;
12359;SDS011;6244;51.460;7.090;2022-12-11T01:17:09;843.80;;;344.30;;
12359;SDS011;6244;51.460;7.090;2022-12-11T01:22:06;840.27;;;340.30;;
12359;SDS011;6244;51.460;7.090;2022-12-11T01:27:03;849.35;;;348.05;;
12359;SDS011;6244;51.460;7.090;2022-12-11T01:32:01;860.03;;;351.90;;
12359;SDS011;6244;51.460;7.090;2022-12-11T01:36:57;845.13;;;348.37;;
12359;SDS011;6244;51.460;7.090;2022-12-11T01:41:55;853.50;;;341.97;;
12359;SDS011;6244;51.460;7.090;2022-12-11T01:46:52;840.75;;;341.65;;
12359;SDS011;6244;51.460;7.090;2022-12-11T01:51:51;846.95;;;341.73;;
12359;SDS011;6244;51.460;7.090;2022-12-11T01:56:51;843.60;;;346.60;;
12359;SDS011;6244;51.460;7.090;2022-12-11T02:01:53;846.70;;;344.83;;
12359;SDS011;6244;51.460;7.090;2022-12-11T02:06:56;832.13;;;341.50;;
12359;SDS011;6244;51.460;7.090;2022-12-11T02:11:55;832.72;;;338.90;;
12359;SDS011;6244;51.460;7.090;2022-12-11T02:16:58;831.75;;;335.58;;
12359;SDS011;6244;51.460;7.090;2022-12-11T02:22:00;832.50;;;338.70;;
12359;SDS011;6244;51.460;7.090;2022-12-11T02:27:09;833.63;;;343.00;;
12359;SDS011;6244;51.460;7.090;2022-12-11T02:32:18;831.17;;;342.58;;
12359;SDS011;6244;51.460;7.090;2022-12-11T02:37:19;836.40;;;345.83;;
12359;SDS011;6244;51.460;7.090;2022-12-11T02:42:18;837.67;;;349.83;;
12359;SDS011;6244;51.460;7.090;2022-12-11T02:47:18;827.92;;;345.35;;
12359;SDS011;6244;51.460;7.090;2022-12-11T02:52:17;830.35;;;343.20;;
12359;SDS011;6244;51.460;7.090;2022-12-11T02:57:17;825.63;;;348.47;;
12359;SDS011;6244;51.460;7.090;2022-12-11T03:02:20;838.20;;;346.48;;
12359;SDS011;6244;51.460;7.090;2022-12-11T03:07:18;834.67;;;350.80;;
12359;SDS011;6244;51.460;7.090;2022-12-11T03:12:19;838.22;;;351.58;;
12359;SDS011;6244;51.460;7.090;2022-12-11T03:17:18;853.38;;;338.33;;
12359;SDS011;6244;51.460;7.090;2022-12-11T03:22:20;850.05;;;335.88;;
12359;SDS011;6244;51.460;7.090;2022-12-11T03:27:25;850.63;;;343.75;;
12359;SDS011;6244;51.460;7.090;2022-12-11T03:32:27;849.17;;;355.42;;
12359;SDS011;6244;51.460;7.090;2022-12-11T03:37:30;856.40;;;362.20;;
12359;SDS011;6244;51.460;7.090;2022-12-11T03:42:29;849.42;;;357.98;;
12359;SDS011;6244;51.460;7.090;2022-12-11T03:47:28;852.45;;;365.52;;
12359;SDS011;6244;51.460;7.090;2022-12-11T03:52:25;843.50;;;363.50;;
12359;SDS011;6244;51.460;7.090;2022-12-11T03:57:25;844.65;;;364.23;;
12359;SDS011;6244;51.460;7.090;2022-12-11T04:02:24;844.35;;;367.85;;
12359;SDS011;6244;51.460;7.090;2022-12-11T04:07:22;843.70;;;357.13;;
12359;SDS011;6244;51.460;7.090;2022-12-11T04:12:19;849.50;;;363.97;;
12359;SDS011;6244;51.460;7.090;2022-12-11T04:17:15;843.13;;;355.80;;
12359;SDS011;6244;51.460;7.090;2022-12-11T04:22:33;854.88;;;368.90;;
12359;SDS011;6244;51.460;7.090;2022-12-11T04:27:47;852.83;;;366.73;;
12359;SDS011;6244;51.460;7.090;2022-12-11T04:32:44;849.15;;;371.42;;
12359;SDS011;6244;51.460;7.090;2022-12-11T04:37:42;852.03;;;356.30;;
12359;SDS011;6244;51.460;7.090;2022-12-11T04:42:39;841.92;;;363.38;;
12359;SDS011;6244;51.460;7.090;2022-12-11T04:47:36;846.70;;;365.25;;
12359;SDS011;6244;51.460;7.090;2022-12-11T04:52:34;845.10;;;362.02;;
12359;SDS011;6244;51.460;7.090;2022-12-11T04:57:31;837.83;;;343.02;;
12359;SDS011;6244;51.460;7.090;2022-12-11T05:02:28;850.13;;;348.35;;
12359;SDS011;6244;51.460;7.090;2022-12-11T05:07:24;849.13;;;350.45;;
12359;SDS011;6244;51.460;7.090;2022-12-11T05:12:21;842.67;;;356.27;;
12359;SDS011;6244;51.460;7.090;2022-12-11T05:17:19;841.78;;;360.88;;
12359;SDS011;6244;51.460;7.090;2022-12-11T05:22:16;848.40;;;361.52;;
12359;SDS011;6244;51.460;7.090;2022-12-11T05:27:13;839.28;;;369.63;;
12359;SDS011;6244;51.460;7.090;2022-12-11T05:32:09;847.10;;;373.77;;
12359;SDS011;6244;51.460;7.090;2022-12-11T05:37:07;849.97;;;361.85;;
12359;SDS011;6244;51.460;7.090;2022-12-11T05:42:04;849.83;;;359.83;;
12359;SDS011;6244;51.460;7.090;2022-12-11T05:47:01;850.67;;;356.27;;
12359;SDS011;6244;51.460;7.090;2022-12-11T05:51:57;844.85;;;353.50;;
12359;SDS011;6244;51.460;7.090;2022-12-11T05:56:55;855.00;;;360.67;;
12359;SDS011;6244;51.460;7.090;2022-12-11T06:01:51;841.70;;;352.70;;
12359;SDS011;6244;51.460;7.090;2022-12-11T06:06:48;845.83;;;354.55;;
12359;SDS011;6244;51.460;7.090;2022-12-11T06:11:44;840.58;;;362.33;;
12359;SDS011;6244;51.460;7.090;2022-12-11T06:16:42;843.20;;;369.38;;
12359;SDS011;6244;51.460;7.090;2022-12-11T06:21:39;845.93;;;376.33;;
12359;SDS011;6244;51.460;7.090;2022-12-11T06:26:36;849.55;;;374.50;;
12359;SDS011;6244;51.460;7.090;2022-12-11T06:31:32;830.27;;;363.57;;
12359;SDS011;6244;51.460;7.090;2022-12-11T06:36:30;841.95;;;367.15;;
12359;SDS011;6244;51.460;7.090;2022-12-11T06:41:27;843.13;;;379.40;;
12359;SDS011;6244;51.460;7.090;2022-12-11T06:46:23;847.75;;;371.52;;
12359;SDS011;6244;51.460;7.090;2022-12-11T06:51:20;845.85;;;385.98;;
12359;SDS011;6244;51.460;7.090;2022-12-11T06:56:19;837.63;;;376.20;;
12359;SDS011;6244;51.460;7.090;2022-12-11T07:01:17;841.90;;;359.17;;
12359;SDS011;6244;51.460;7.090;2022-12-11T07:06:15;833.78;;;340.85;;
12359;SDS011;6244;51.460;7.090;2022-12-11T07:11:12;833.53;;;345.05;;
12359;SDS011;6244;51.460;7.090;2022-12-11T07:16:12;831.67;;;342.27;;
12359;SDS011;6244;51.460;7.090;2022-12-11T07:21:10;827.42;;;337.27;;
12359;SDS011;6244;51.460;7.090;2022-12-11T07:26:09;835.03;;;335.48;;
12359;SDS011;6244;51.460;7.090;2022-12-11T07:31:07;834.43;;;343.87;;
12359;SDS011;6244;51.460;7.090;2022-12-11T07:36:08;824.50;;;335.40;;
12359;SDS011;6244;51.460;7.090;2022-12-11T07:41:06;839.78;;;338.83;;
12359;SDS011;6244;51.460;7.090;2022-12-11T07:46:05;835.47;;;344.50;;
12359;SDS011;6244;51.460;7.090;2022-12-11T07:51:08;834.85;;;340.20;;
12359;SDS011;6244;51.460;7.090;2022-12-11T07:56:05;836.47;;;344.30;;
12359;SDS011;6244;51.460;7.090;2022-12-11T08:01:02;841.88;;;358.88;;
12359;SDS011;6244;51.460;7.090;2022-12-11T08:05:59;842.05;;;359.02;;
12359;SDS011;6244;51.460;7.090;2022-12-11T08:10:59;835.93;;;347.20;;
12359;SDS011;6244;51.460;7.090;2022-12-11T08:15:55;834.40;;;342.55;;
12359;SDS011;6244;51.460;7.090;2022-12-11T08:20:52;827.95;;;341.75;;
12359;SDS011;6244;51.460;7.090;2022-12-11T08:25:48;835.20;;;340.52;;
12359;SDS011;6244;51.460;7.090;2022-12-11T08:30:46;830.55;;;343.35;;
12359;SDS011;6244;51.460;7.090;2022-12-11T08:35:43;831.30;;;341.50;;
12359;SDS011;6244;51.460;7.090;2022-12-11T08:40:40;838.78;;;344.15;;
12359;SDS011;6244;51.460;7.090;2022-12-11T08:45:37;840.95;;;339.70;;
12359;SDS011;6244;51.460;7.090;2022-12-11T08:50:35;838.10;;;340.40;;
12359;SDS011;6244;51.460;7.090;2022-12-11T08:55:32;840.40;;;344.53;;
12359;SDS011;6244;51.460;7.090;2022-12-11T09:00:28;839.95;;;346.10;;
12359;SDS011;6244;51.460;7.090;2022-12-11T09:05:25;841.10;;;357.10;;
12359;SDS011;6244;51.460;7.090;2022-12-11T09:10:23;828.17;;;348.70;;
12359;SDS011;6244;51.460;7.090;2022-12-11T09:15:19;836.97;;;340.88;;
12359;SDS011;6244;51.460;7.090;2022-12-11T09:20:16;833.03;;;339.47;;
12359;SDS011;6244;51.460;7.090;2022-12-11T09:25:12;838.15;;;350.50;;
12359;SDS011;6244;51.460;7.090;2022-12-11T09:30:11;844.35;;;369.90;;
12359;SDS011;6244;51.460;7.090;2022-12-11T09:35:08;842.75;;;377.70;;
12359;SDS011;6244;51.460;7.090;2022-12-11T09:40:05;844.95;;;362.15;;
12359;SDS011;6244;51.460;7.090;2022-12-11T09:45:09;845.75;;;366.67;;
12359;SDS011;6244;51.460;7.090;2022-12-11T09:50:12;843.55;;;358.95;;
12359;SDS011;6244;51.460;7.090;2022-12-11T09:55:13;851.92;;;366.50;;
12359;SDS011;6244;51.460;7.090;2022-12-11T10:00:17;849.00;;;366.27;;
12359;SDS011;6244;51.460;7.090;2022-12-11T10:05:16;839.27;;;368.27;;
12359;SDS011;6244;51.460;7.090;2022-12-11T10:10:25;828.27;;;354.57;;
12359;SDS011;6244;51.460;7.090;2022-12-11T10:15:36;842.90;;;358.50;;
12359;SDS011;6244;51.460;7.090;2022-12-11T10:20:35;833.95;;;353.45;;
12359;SDS011;6244;51.460;7.090;2022-12-11T10:25:35;841.45;;;360.85;;
12359;SDS011;6244;51.460;7.090;2022-12-11T10:30:34;835.07;;;354.03;;
12359;SDS011;6244;51.460;7.090;2022-12-11T10:35:35;834.17;;;347.65;;
12359;SDS011;6244;51.460;7.090;2022-12-11T10:40:34;832.67;;;345.73;;
12359;SDS011;6244;51.460;7.090;2022-12-11T10:45:33;822.65;;;345.10;;
12359;SDS011;6244;51.460;7.090;2022-12-11T10:50:31;836.53;;;341.02;;
12359;SDS011;6244;51.460;7.090;2022-12-11T10:55:28;830.38;;;344.80;;
12359;SDS011;6244;51.460;7.090;2022-12-11T11:00:39;830.95;;;362.83;;
12359;SDS011;6244;51.460;7.090;2022-12-11T11:05:38;834.83;;;373.85;;
12359;SDS011;6244;51.460;7.090;2022-12-11T11:10:34;844.22;;;383.98;;
12359;SDS011;6244;51.460;7.090;2022-12-11T11:15:31;847.30;;;367.38;;
12359;SDS011;6244;51.460;7.090;2022-12-11T11:20:29;832.90;;;364.05;;
12359;SDS011;6244;51.460;7.090;2022-12-11T11:25:29;827.13;;;370.80;;
12359;SDS011;6244;51.460;7.090;2022-12-11T11:30:28;833.67;;;376.92;;
12359;SDS011;6244;51.460;7.090;2022-12-11T11:35:29;836.95;;;379.38;;
12359;SDS011;6244;51.460;7.090;2022-12-11T11:40:27;835.40;;;372.40;;
12359;SDS011;6244;51.460;7.090;2022-12-11T11:45:45;852.05;;;358.23;;
12359;SDS011;6244;51.460;7.090;2022-12-11T11:50:47;846.00;;;371.97;;
12359;SDS011;6244;51.460;7.090;2022-12-11T11:55:48;841.42;;;356.45;;
12359;SDS011;6244;51.460;7.090;2022-12-11T12:00:53;844.58;;;356.08;;
12359;SDS011;6244;51.460;7.090;2022-12-11T12:05:52;869.23;;;381.97;;
12359;SDS011;6244;51.460;7.090;2022-12-11T12:10:54;840.43;;;356.50;;
12359;SDS011;6244;51.460;7.090;2022-12-11T12:29:17;13.57;;;9.10;;
12359;SDS011;6244;51.460;7.090;2022-12-11T12:34:27;9.65;;;6.43;;
12359;SDS011;6244;51.460;7.090;2022-12-11T12:39:36;10.63;;;6.05;;
12359;SDS011;6244;51.460;7.090;2022-12-11T12:44:44;7.95;;;5.32;;
12359;SDS011;6244;51.460;7.090;2022-12-11T12:49:49;8.55;;;5.50;;
12359;SDS011;6244;51.460;7.090;2022-12-11T12:54:50;11.85;;;6.45;;
12359;SDS011;6244;51.460;7.090;2022-12-11T13:06:56;8.38;;;6.25;;
12359;SDS011;6244;51.460;7.090;2022-12-11T13:11:54;9.82;;;6.22;;
12359;SDS011;6244;51.460;7.090;2022-12-11T13:16:52;9.00;;;5.95;;
12359;SDS011;6244;51.460;7.090;2022-12-11T13:22:03;8.65;;;6.00;;
12359;SDS011;6244;51.460;7.090;2022-12-11T13:27:21;8.27;;;5.55;;
12359;SDS011;6244;51.460;7.090;2022-12-11T13:32:21;6.85;;;5.40;;
12359;SDS011;6244;51.460;7.090;2022-12-11T13:37:22;9.27;;;5.53;;
12359;SDS011;6244;51.460;7.090;2022-12-11T13:42:23;9.32;;;6.15;;
12359;SDS011;6244;51.460;7.090;2022-12-11T13:47:25;9.90;;;5.65;;
12359;SDS011;6244;51.460;7.090;2022-12-11T13:52:23;9.30;;;5.95;;
12359;SDS011;6244;51.460;7.090;2022-12-11T13:57:22;8.30;;;5.53;;
12359;SDS011;6244;51.460;7.090;2022-12-11T14:02:21;8.70;;;5.70;;
12359;SDS011;6244;51.460;7.090;2022-12-11T14:07:22;8.18;;;5.65;;
12359;SDS011;6244;51.460;7.090;2022-12-11T14:12:23;9.32;;;6.70;;
12359;SDS011;6244;51.460;7.090;2022-12-11T14:17:21;9.55;;;5.82;;
12359;SDS011;6244;51.460;7.090;2022-12-11T14:22:21;10.73;;;5.75;;
12359;SDS011;6244;51.460;7.090;2022-12-11T14:27:21;7.65;;;5.50;;
12359;SDS011;6244;51.460;7.090;2022-12-11T14:32:19;7.10;;;5.03;;
12359;SDS011;6244;51.460;7.090;2022-12-11T14:37:26;9.52;;;5.65;;
12359;SDS011;6244;51.460;7.090;2022-12-11T14:42:25;8.30;;;5.10;;
12359;SDS011;6244;51.460;7.090;2022-12-11T14:47:25;10.05;;;5.25;;
12359;SDS011;6244;51.460;7.090;2022-12-11T14:52:24;7.78;;;5.03;;
12359;SDS011;6244;51.460;7.090;2022-12-11T14:57:27;7.53;;;5.75;;
